Terminal Aerodrome Forecast
Issued by NWS

Home | Current Version | Previous Version | Text Only | Print | Product List | Glossary On
Versions: 1 2 3 4 5 6 7 8 9 10 11 12 13 14 15 16 17 18 19 20 21 22 23 24 25 26 27 28 29 30 31 32 33 34 35 36 37 38 39
000
FTUS43 KSGF 200632 AAP
TAFJLN
TAF AMD
KJLN 200632Z 2007/2106 03005KT 6SM BR OVC005
     FM201200 VRB04KT 6SM SHRA BR OVC005
     FM201600 16005KT P6SM OVC009 PROB30 2016/2018 4SM SHRA BR
      OVC008
     FM201800 24007KT P6SM OVC015 PROB30 2022/2103 4SM TSRA BR
      OVC025CB
     FM210300 VRB04KT P6SM SHRA OVC010 PROB30 2103/2106 4SM TSRA BR
      OVC025CB=

USA.gov is the U.S. government's official web portal to all federal, state and local government web resources and services.